createdAt,value
2019-05-02T00:00:51.642Z,11.59
2019-05-02T00:01:51.646Z,11.54
2019-05-02T00:02:51.388Z,11.54
2019-05-02T00:03:51.382Z,11.52
2019-05-02T00:04:58.518Z,11.51
2019-05-02T00:05:51.623Z,11.5
2019-05-02T00:06:51.376Z,11.41
2019-05-02T00:07:53.782Z,11.35
2019-05-02T00:08:51.616Z,11.4
2019-05-02T00:09:54.693Z,11.4
2019-05-02T00:10:51.859Z,11.33
2019-05-02T00:12:02.964Z,11.36
2019-05-02T00:12:51.586Z,11.33
2019-05-02T00:13:51.585Z,11.26
2019-05-02T00:14:51.837Z,11.23
2019-05-02T00:15:51.847Z,11.25
2019-05-02T00:16:53.880Z,11.25
2019-05-02T00:17:51.576Z,11.23
2019-05-02T00:18:51.817Z,11.1
2019-05-02T00:19:54.910Z,11.17
2019-05-02T00:20:51.293Z,11.11
2019-05-02T00:21:51.797Z,11.11
2019-05-02T00:22:54.598Z,11.1
2019-05-02T00:23:51.297Z,11.02
2019-05-02T00:24:51.275Z,10.92
2019-05-02T00:25:57.072Z,11.07
2019-05-02T00:26:55.974Z,10.97
2019-05-02T00:27:51.780Z,11.02
2019-05-02T00:28:52.943Z,11.08
2019-05-02T00:29:53.705Z,10.97
2019-05-02T00:30:51.746Z,10.97
2019-05-02T00:31:53.670Z,10.96
2019-05-02T00:32:58.171Z,10.96
2019-05-02T00:33:51.503Z,10.84
2019-05-02T00:34:51.482Z,10.92
2019-05-02T00:35:52.161Z,10.87
2019-05-02T00:36:51.488Z,10.84
2019-05-02T00:37:51.726Z,10.86
2019-05-02T00:38:52.514Z,10.86
2019-05-02T00:39:54.084Z,10.75
2019-05-02T00:40:51.469Z,10.86
2019-05-02T00:41:51.458Z,10.81
2019-05-02T00:42:58.130Z,10.81
2019-05-02T00:43:51.431Z,10.74
2019-05-02T00:44:52.850Z,10.76
2019-05-02T00:45:54.947Z,10.74
2019-05-02T00:46:51.414Z,10.74
2019-05-02T00:47:52.287Z,10.75
2019-05-02T00:48:54.014Z,10.76
2019-05-02T00:49:51.149Z,10.78
2019-05-02T00:50:56.950Z,10.79
2019-05-02T00:51:51.164Z,10.78
2019-05-02T00:52:51.383Z,10.79
2019-05-02T00:53:53.463Z,10.82
2019-05-02T00:54:54.919Z,10.72
2019-05-02T00:55:51.414Z,10.75
2019-05-02T00:56:51.123Z,10.64
2019-05-02T00:57:58.335Z,10.67
2019-05-02T00:58:51.361Z,10.61
2019-05-02T00:59:51.601Z,10.63
2019-05-02T01:00:55.593Z,10.56
2019-05-02T01:01:51.346Z,10.53
2019-05-02T01:02:51.583Z,10.56
2019-05-02T01:03:55.534Z,10.49
2019-05-02T01:04:51.320Z,10.49
2019-05-02T01:05:51.567Z,10.42
2019-05-02T01:06:53.955Z,10.37
2019-05-02T01:07:51.563Z,10.37
2019-05-02T01:08:51.311Z,10.33
2019-05-02T01:09:52.825Z,10.28
2019-05-02T01:10:56.753Z,10.3
2019-05-02T01:11:51.520Z,10.31
2019-05-02T01:12:51.266Z,10.26
2019-05-02T01:13:58.357Z,10.15
2019-05-02T01:14:51.514Z,10.2
2019-05-02T01:15:51.541Z,10.17
2019-05-02T01:16:57.067Z,10.22
2019-05-02T01:17:51.269Z,10.09
2019-05-02T01:18:51.226Z,10.13
2019-05-02T01:19:53.986Z,10.15
2019-05-02T01:20:51.217Z,10.09
2019-05-02T01:21:51.230Z,10.23
2019-05-02T01:22:54.965Z,10.16
2019-05-02T01:23:51.194Z,10.15
2019-05-02T01:24:54.101Z,10.05
2019-05-02T01:25:55.530Z,10.2
2019-05-02T01:26:51.197Z,10.05
2019-05-02T01:27:51.432Z,10.04
2019-05-02T01:28:56.839Z,10.1
2019-05-02T01:29:51.161Z,10.16
2019-05-02T01:30:51.420Z,10.15
2019-05-02T01:31:57.313Z,10.09
2019-05-02T01:32:51.164Z,10.1
2019-05-02T01:33:50.884Z,10.1
2019-05-02T01:34:56.942Z,10.09
2019-05-02T01:35:51.371Z,10.09
2019-05-02T01:36:51.366Z,9.99
2019-05-02T01:37:57.396Z,10.15
2019-05-02T01:38:51.103Z,10.07
2019-05-02T01:39:50.859Z,10.1
2019-05-02T01:40:55.576Z,10.05
2019-05-02T01:41:51.357Z,10.04
2019-05-02T01:42:53.941Z,9.99
2019-05-02T01:43:54.822Z,9.99
2019-05-02T01:44:51.315Z,9.89
2019-05-02T01:45:52.469Z,9.95
2019-05-02T01:46:53.944Z,9.89
2019-05-02T01:47:51.296Z,9.86
2019-05-02T01:48:52.572Z,9.86
2019-05-02T01:49:57.086Z,9.91
2019-05-02T01:50:51.275Z,9.89
2019-05-02T01:51:53.441Z,9.86
2019-05-02T01:52:53.630Z,9.91
2019-05-02T01:53:51.011Z,9.91
2019-05-02T01:54:52.356Z,9.91
2019-05-02T01:55:59.478Z,9.94
2019-05-02T01:56:50.997Z,9.87
2019-05-02T01:57:51.238Z,9.86
2019-05-02T01:58:57.649Z,9.84
2019-05-02T01:59:51.221Z,9.82
2019-05-02T02:00:50.971Z,9.76
2019-05-02T02:01:57.864Z,9.73
2019-05-02T02:02:51.215Z,9.74
2019-05-02T02:03:51.812Z,9.73
2019-05-02T02:04:56.806Z,9.76
2019-05-02T02:05:50.935Z,9.72
2019-05-02T02:06:50.933Z,9.66
2019-05-02T02:07:55.400Z,9.72
2019-05-02T02:08:50.942Z,9.61
2019-05-02T02:09:51.161Z,9.62
2019-05-02T02:11:00.677Z,9.56
2019-05-02T02:11:50.917Z,9.54
2019-05-02T02:13:07.853Z,9.55
2019-05-02T02:13:51.133Z,9.56
2019-05-02T02:14:55.735Z,9.51
2019-05-02T02:15:51.126Z,9.46
2019-05-02T02:16:51.122Z,9.51
2019-05-02T02:17:53.818Z,9.4
2019-05-02T02:18:51.170Z,9.43
2019-05-02T02:19:51.115Z,9.48
2019-05-02T02:20:53.692Z,9.54
2019-05-02T02:21:50.849Z,9.46
2019-05-02T02:22:50.848Z,9.43
2019-05-02T02:23:54.528Z,9.47
2019-05-02T02:24:51.062Z,9.44
2019-05-02T02:25:51.056Z,9.41
2019-05-02T02:26:53.022Z,9.48
2019-05-02T02:27:54.871Z,9.46
2019-05-02T02:28:50.799Z,9.4
2019-05-02T02:29:51.035Z,9.44
2019-05-02T02:30:50.797Z,9.41
2019-05-02T02:31:53.081Z,9.44
2019-05-02T02:32:50.778Z,9.58
2019-05-02T02:33:52.577Z,9.5
2019-05-02T02:34:51.004Z,9.55
2019-05-02T02:35:56.457Z,9.51
2019-05-02T02:36:51.011Z,9.61
2019-05-02T02:37:58.307Z,9.54
2019-05-02T02:38:50.975Z,9.55
2019-05-02T02:39:58.944Z,9.39
2019-05-02T02:40:50.959Z,9.41
2019-05-02T02:41:57.286Z,9.28
2019-05-02T02:42:50.737Z,9.37
2019-05-02T02:43:54.599Z,9.32
2019-05-02T02:44:50.696Z,9.32
2019-05-02T02:46:02.198Z,9.26
2019-05-02T02:46:50.697Z,9.29
2019-05-02T02:47:59.782Z,9.32
2019-05-02T02:48:50.722Z,9.29
2019-05-02T02:49:55.662Z,9.31
2019-05-02T02:50:50.674Z,9.14
2019-05-02T02:51:50.388Z,9.19
2019-05-02T02:52:51.932Z,9.21
2019-05-02T02:53:50.405Z,9.21
2019-05-02T02:54:50.641Z,9.14
2019-05-02T02:56:04.120Z,9.13
2019-05-02T02:56:50.603Z,9.04
2019-05-02T02:57:50.607Z,9.14
2019-05-02T02:58:52.939Z,9.11
2019-05-02T02:59:50.599Z,8.97
2019-05-02T03:00:52.776Z,8.99
2019-05-02T03:01:50.575Z,9
2019-05-02T03:02:53.481Z,9.1
2019-05-02T03:03:50.318Z,9
2019-05-02T03:04:51.337Z,9.08
2019-05-02T03:05:50.575Z,8.94
2019-05-02T03:06:51.759Z,9.06
2019-05-02T03:07:50.550Z,9.1
2019-05-02T03:08:54.056Z,9.14
2019-05-02T03:09:50.545Z,9.19
2019-05-02T03:10:51.185Z,9.21
2019-05-02T03:11:56.132Z,9.4
2019-05-02T03:12:50.249Z,9.36
2019-05-02T03:14:09.557Z,9.37
2019-05-02T03:14:51.811Z,9.46
2019-05-02T03:15:50.736Z,9.43
2019-05-02T03:16:54.071Z,9.37
2019-05-02T03:17:50.494Z,9.4
2019-05-02T03:18:50.491Z,9.4
2019-05-02T03:19:54.153Z,9.36
2019-05-02T03:20:50.714Z,9.32
2019-05-02T03:22:04.035Z,9.34
2019-05-02T03:22:50.678Z,9.18
2019-05-02T03:24:01.180Z,9.21
2019-05-02T03:24:51.380Z,9.22
2019-05-02T03:25:55.233Z,9.25
2019-05-02T03:26:58.279Z,9.18
2019-05-02T03:27:50.190Z,9.21
2019-05-02T03:29:03.291Z,9.21
2019-05-02T03:29:50.398Z,9.14
2019-05-02T03:30:50.423Z,9.21
2019-05-02T03:31:50.385Z,9.16
2019-05-02T03:33:13.756Z,9.21
2019-05-02T03:34:03.394Z,9.23
2019-05-02T03:34:57.163Z,9.18
2019-05-02T03:35:54.106Z,9.18
2019-05-02T03:36:50.374Z,9.16
2019-05-02T03:37:56.238Z,9.21
2019-05-02T03:38:50.333Z,9.18
2019-05-02T03:40:03.131Z,9.23
2019-05-02T03:40:50.549Z,9.19
2019-05-02T03:41:55.380Z,9.11
2019-05-02T03:42:52.266Z,9.14
2019-05-02T03:43:50.533Z,9.13
2019-05-02T03:45:06.707Z,9.11
2019-05-02T03:45:50.561Z,9.1
2019-05-02T03:47:04.910Z,9.14
2019-05-02T03:47:51.418Z,9.04
2019-05-02T03:48:50.026Z,9.02
2019-05-02T03:49:54.814Z,9
2019-05-02T03:50:50.251Z,8.99
2019-05-02T03:52:51.341Z,8.92
2019-05-02T03:53:50.472Z,8.91
2019-05-02T03:54:55.017Z,8.89
2019-05-02T03:55:50.213Z,8.71
2019-05-02T03:56:58.025Z,8.64
2019-05-02T03:57:50.195Z,8.84
2019-05-02T03:59:00.747Z,8.73
2019-05-02T03:59:50.432Z,8.64
2019-05-02T04:01:00.230Z,8.56
2019-05-02T04:01:49.909Z,8.6
2019-05-02T04:03:02.588Z,8.56
2019-05-02T04:03:50.151Z,8.52
2019-05-02T04:05:00.380Z,8.51
2019-05-02T04:05:50.149Z,8.63
2019-05-02T04:06:54.835Z,8.52
2019-05-02T04:07:49.869Z,8.55
2019-05-02T04:09:02.007Z,8.6
2019-05-02T04:09:50.091Z,8.52
2019-05-02T04:11:01.790Z,8.52
2019-05-02T04:11:50.332Z,8.51
2019-05-02T04:12:59.931Z,8.51
2019-05-02T04:13:50.344Z,8.53
2019-05-02T04:14:55.250Z,8.52
2019-05-02T04:15:50.081Z,8.53
2019-05-02T04:16:57.951Z,8.49
2019-05-02T04:17:50.296Z,8.52
2019-05-02T04:19:00.538Z,8.6
2019-05-02T04:19:50.285Z,8.53
2019-05-02T04:20:54.909Z,8.55
2019-05-02T04:21:55.076Z,8.56
2019-05-02T04:22:53.937Z,8.46
2019-05-02T04:23:49.992Z,8.53
2019-05-02T04:25:01.092Z,8.53
2019-05-02T04:25:49.989Z,8.56
2019-05-02T04:27:00.381Z,8.58
2019-05-02T04:27:50.257Z,8.63
2019-05-02T04:28:56.772Z,8.67
2019-05-02T04:29:49.740Z,8.66
2019-05-02T04:30:56.545Z,8.66
2019-05-02T04:31:50.198Z,8.7
2019-05-02T04:32:58.197Z,8.64
2019-05-02T04:33:50.177Z,8.79
2019-05-02T04:34:59.995Z,8.81
2019-05-02T04:35:50.157Z,8.88
2019-05-02T04:37:03.836Z,8.97
2019-05-02T04:37:49.896Z,9.11
2019-05-02T04:38:59.196Z,9.23
2019-05-02T04:39:53.637Z,9.37
2019-05-02T04:40:53.545Z,9.56
2019-05-02T04:41:53.115Z,9.68
2019-05-02T04:43:13.377Z,9.92
2019-05-02T04:44:03.797Z,9.99
2019-05-02T04:45:38.339Z,10.2
2019-05-02T04:46:26.799Z,10.3
2019-05-02T04:47:22.119Z,10.3
2019-05-02T04:48:10.666Z,10.34
2019-05-02T04:49:05.206Z,10.49
2019-05-02T04:50:29.388Z,10.74
2019-05-02T04:51:22.335Z,10.87
2019-05-02T04:52:17.373Z,11
2019-05-02T04:53:08.359Z,11.19
2019-05-02T04:54:05.458Z,11.29
2019-05-02T04:55:33.318Z,11.43
2019-05-02T04:56:13.185Z,11.51
2019-05-02T04:57:10.487Z,11.55
2019-05-02T04:58:08.291Z,11.81
2019-05-02T04:59:22.662Z,11.97
2019-05-02T05:00:14.428Z,12.02
2019-05-02T05:01:06.745Z,12
2019-05-02T05:02:08.681Z,11.88
2019-05-02T05:03:18.197Z,12.02
2019-05-02T05:04:10.594Z,12.06
2019-05-02T05:05:05.151Z,12.18
2019-05-02T05:06:15.269Z,12.12
2019-05-02T05:07:08.955Z,12.25
2019-05-02T05:08:07.276Z,12.29
2019-05-02T05:09:17.876Z,12.25
2019-05-02T05:10:08.478Z,12.49
2019-05-02T05:11:05.124Z,12.61
2019-05-02T05:12:09.523Z,12.78
2019-05-02T05:13:04.852Z,12.93
2019-05-02T05:14:07.078Z,13
2019-05-02T05:15:07.681Z,13.16
2019-05-02T05:16:15.462Z,13.28
2019-05-02T05:17:05.340Z,13.27
2019-05-02T05:18:14.594Z,13.39
2019-05-02T05:19:04.842Z,13.49
2019-05-02T05:20:18.352Z,13.6
2019-05-02T05:21:05.087Z,13.68
2019-05-02T05:22:14.286Z,13.83
2019-05-02T05:23:04.844Z,13.97
2019-05-02T05:24:07.684Z,14.04
2019-05-02T05:25:07.358Z,14.11
2019-05-02T05:26:09.847Z,14.1
2019-05-02T05:27:05.069Z,14.04
2019-05-02T05:28:11.555Z,13.86
2019-05-02T05:29:05.340Z,13.62
2019-05-02T05:30:18.760Z,13.28
2019-05-02T05:31:07.413Z,13.04
2019-05-02T05:32:12.511Z,12.82
2019-05-02T05:33:07.569Z,12.65
2019-05-02T05:34:04.815Z,12.62
2019-05-02T05:35:13.006Z,12.61
2019-05-02T05:36:05.065Z,12.6
2019-05-02T05:37:14.198Z,12.45
2019-05-02T05:38:07.535Z,12.4
2019-05-02T05:39:12.459Z,12.47
2019-05-02T05:40:05.074Z,12.29
2019-05-02T05:41:19.133Z,12.36
2019-05-02T05:42:05.056Z,12.39
2019-05-02T05:43:20.239Z,12.43
2019-05-02T05:44:05.094Z,12.49
2019-05-02T05:45:14.473Z,12.43
2019-05-02T05:46:17.790Z,12.5
2019-05-02T05:47:07.159Z,12.55
2019-05-02T05:48:05.716Z,12.82
2019-05-02T05:49:05.027Z,13.41
2019-05-02T05:50:05.832Z,13.78
2019-05-02T05:51:07.045Z,14.1
2019-05-02T05:52:10.504Z,14.32
2019-05-02T05:53:05.293Z,14.36
2019-05-02T05:54:10.130Z,14.33
2019-05-02T05:55:07.802Z,14.37
2019-05-02T05:56:07.921Z,14.59
2019-05-02T05:57:05.022Z,14.63
2019-05-02T05:58:18.692Z,14.82
2019-05-02T05:59:05.033Z,14.88
2019-05-02T06:00:17.325Z,14.97
2019-05-02T06:01:07.691Z,15.1
2019-05-02T06:02:12.580Z,15.29
2019-05-02T06:03:17.865Z,15.54
2019-05-02T06:04:04.790Z,15.73
2019-05-02T06:05:10.389Z,15.95
2019-05-02T06:06:05.037Z,16.36
2019-05-02T06:07:09.727Z,16.53
2019-05-02T06:08:05.271Z,16.76
2019-05-02T06:09:05.284Z,16.94
2019-05-02T06:10:10.291Z,16.81
2019-05-02T06:11:05.026Z,16.76
2019-05-02T06:12:05.031Z,16.91
2019-05-02T06:13:12.922Z,16.78
2019-05-02T06:14:05.033Z,16.71
2019-05-02T06:15:07.020Z,16.76
2019-05-02T06:16:10.397Z,16.86
2019-05-02T06:17:05.290Z,16.99
2019-05-02T06:18:09.699Z,17.04
2019-05-02T06:19:05.034Z,16.83
2019-05-02T06:20:05.042Z,16.74
2019-05-02T06:21:11.315Z,16.56
2019-05-02T06:22:05.035Z,16.26
2019-05-02T06:23:06.123Z,16.01
2019-05-02T06:24:04.801Z,16.16
2019-05-02T06:25:08.620Z,16.01
2019-05-02T06:26:13.394Z,16.33
2019-05-02T06:27:05.053Z,16.38
2019-05-02T06:28:10.151Z,16.58
2019-05-02T06:29:05.046Z,16.76
2019-05-02T06:30:05.303Z,17.05
2019-05-02T06:31:09.647Z,17.38
2019-05-02T06:32:05.293Z,17.39
2019-05-02T06:33:05.040Z,17.63
2019-05-02T06:34:11.345Z,17.89
2019-05-02T06:35:05.075Z,18.03
2019-05-02T06:36:07.102Z,18.29
2019-05-02T06:37:08.062Z,18.31
2019-05-02T06:38:04.802Z,18.37
2019-05-02T06:39:05.320Z,18.43
2019-05-02T06:40:10.499Z,18.5
2019-05-02T06:41:05.064Z,18.43
2019-05-02T06:42:04.815Z,18.47
2019-05-02T06:43:12.561Z,18.59
2019-05-02T06:44:05.071Z,18.62
2019-05-02T06:45:05.709Z,18.7
2019-05-02T06:46:21.576Z,18.81
2019-05-02T06:47:09.218Z,19.12
2019-05-02T06:48:05.844Z,19.31
2019-05-02T06:49:05.079Z,19.63
2019-05-02T06:50:05.927Z,19.86
2019-05-02T06:51:05.109Z,19.91
2019-05-02T06:52:05.088Z,20.04
2019-05-02T06:53:12.169Z,20.24
2019-05-02T06:54:05.098Z,20.28
2019-05-02T06:55:05.092Z,20.37
2019-05-02T06:56:07.895Z,20.47
2019-05-02T06:57:05.359Z,20.72
2019-05-02T06:58:10.377Z,20.75
2019-05-02T06:59:04.866Z,20.82
2019-05-02T07:00:06.525Z,21
2019-05-02T07:01:05.368Z,21.37
2019-05-02T07:02:04.933Z,21.55
2019-05-02T07:03:12.726Z,21.54
2019-05-02T07:04:08.907Z,21.91
2019-05-02T07:05:05.384Z,22.1
2019-05-02T07:06:10.183Z,22.26
2019-05-02T07:07:05.749Z,22.3
2019-05-02T07:08:14.065Z,22.41
2019-05-02T07:09:05.481Z,22.66
2019-05-02T07:10:07.321Z,22.87
2019-05-02T07:11:07.497Z,23.09
2019-05-02T07:12:09.717Z,23.12
2019-05-02T07:13:17.569Z,23.1
2019-05-02T07:14:23.339Z,23.15
2019-05-02T07:15:08.347Z,23.17
2019-05-02T07:16:05.418Z,23.27
2019-05-02T07:17:10.029Z,23.18
2019-05-02T07:18:14.782Z,23.23
2019-05-02T07:19:04.980Z,23.27
2019-05-02T07:20:08.855Z,23.2
2019-05-02T07:21:05.470Z,22.94
2019-05-02T07:22:09.134Z,23.08
2019-05-02T07:23:04.993Z,23.15
2019-05-02T07:24:05.498Z,23.18
2019-05-02T07:25:09.537Z,22.99
2019-05-02T07:26:05.513Z,22.55
2019-05-02T07:27:07.005Z,22.06
2019-05-02T07:28:12.072Z,21.89
2019-05-02T07:29:05.249Z,21.79
2019-05-02T07:30:05.268Z,21.54
2019-05-02T07:31:11.841Z,21.27
2019-05-02T07:32:05.273Z,21.05
2019-05-02T07:33:06.186Z,20.97
2019-05-02T07:34:07.940Z,20.85
2019-05-02T07:35:05.536Z,21.03
2019-05-02T07:36:06.027Z,21.29
2019-05-02T07:37:08.324Z,21.51
2019-05-02T07:38:05.288Z,21.66
2019-05-02T07:39:10.266Z,21.85
2019-05-02T07:40:05.301Z,21.75
2019-05-02T07:41:05.315Z,21.64
2019-05-02T07:42:11.027Z,21.73
2019-05-02T07:43:05.340Z,21.66
2019-05-02T07:44:06.640Z,21.6
2019-05-02T07:45:12.098Z,21.46
2019-05-02T07:46:05.575Z,21.46
2019-05-02T07:47:07.288Z,21.6
2019-05-02T07:48:06.141Z,21.62
2019-05-02T07:49:05.600Z,21.61
2019-05-02T07:50:12.932Z,22.04
2019-05-02T07:51:05.352Z,22.14
2019-05-02T07:52:05.371Z,22.3
2019-05-02T07:53:14.262Z,22.51
2019-05-02T07:54:05.378Z,22.75
2019-05-02T07:55:12.199Z,22.7
2019-05-02T07:56:05.636Z,22.99
2019-05-02T07:57:07.220Z,23.36
2019-05-02T07:58:09.464Z,23.41
2019-05-02T07:59:05.626Z,23.58
2019-05-02T08:00:07.299Z,23.59
2019-05-02T08:01:07.911Z,23.66
2019-05-02T08:02:05.645Z,23.98
2019-05-02T08:03:07.492Z,24.26
2019-05-02T08:04:13.871Z,24.45
2019-05-02T08:05:08.459Z,24.51
2019-05-02T08:06:05.420Z,24.65
2019-05-02T08:07:05.179Z,24.98
2019-05-02T08:08:05.426Z,25.01
2019-05-02T08:09:11.407Z,25.06
2019-05-02T08:10:05.439Z,25.11
2019-05-02T08:11:07.700Z,25.07
2019-05-02T08:12:05.468Z,25.08
2019-05-02T08:13:05.217Z,24.95
2019-05-02T08:14:05.236Z,24.96
2019-05-02T08:15:13.008Z,24.84
2019-05-02T08:16:05.475Z,24.81
2019-05-02T08:17:19.259Z,24.66
2019-05-02T08:18:05.481Z,24.84
2019-05-02T08:19:08.111Z,24.8
2019-05-02T08:20:13.522Z,24.81
2019-05-02T08:21:05.267Z,24.66
2019-05-02T08:22:15.897Z,24.85
2019-05-02T08:23:05.770Z,24.85
2019-05-02T08:24:07.335Z,24.99
2019-05-02T08:25:10.321Z,24.96
2019-05-02T08:26:05.785Z,25.03
2019-05-02T08:27:05.534Z,25.01
2019-05-02T08:28:09.985Z,24.99
2019-05-02T08:29:05.586Z,25.03
2019-05-02T08:30:09.272Z,25.01
2019-05-02T08:31:05.578Z,24.74
2019-05-02T08:32:05.835Z,24.23
2019-05-02T08:33:05.319Z,23.68
2019-05-02T08:34:17.528Z,23.55
2019-05-02T08:35:05.587Z,23.54
2019-05-02T08:36:05.593Z,23.56
2019-05-02T08:37:08.189Z,23.68
2019-05-02T08:38:05.372Z,23.69
2019-05-02T08:39:05.621Z,24.02
2019-05-02T08:40:12.998Z,24.03
2019-05-02T08:41:05.887Z,23.96
2019-05-02T08:42:05.628Z,23.54
2019-05-02T08:43:13.145Z,22.85
2019-05-02T08:44:05.679Z,22.23
2019-05-02T08:45:07.781Z,21.55
2019-05-02T08:46:09.313Z,21.27
2019-05-02T08:47:17.749Z,20.66
2019-05-02T08:48:10.016Z,20.22
2019-05-02T08:49:05.907Z,19.94
2019-05-02T08:50:07.693Z,19.79
2019-05-02T08:51:05.425Z,19.54
2019-05-02T08:52:05.667Z,19.27
2019-05-02T08:53:05.685Z,19.19
2019-05-02T08:54:05.947Z,19.08
2019-05-02T08:55:12.230Z,19.15
2019-05-02T08:56:05.684Z,19.41
2019-05-02T08:57:05.941Z,19.48
2019-05-02T08:58:14.351Z,19.52
2019-05-02T08:59:07.321Z,19.52
2019-05-02T09:00:05.812Z,19.49
2019-05-02T09:01:09.059Z,19.76
2019-05-02T09:02:05.708Z,19.77
2019-05-02T09:03:07.623Z,19.74
2019-05-02T09:04:05.464Z,19.69
2019-05-02T09:05:09.241Z,19.76
2019-05-02T09:06:10.673Z,19.79
2019-05-02T09:07:05.693Z,19.66
2019-05-02T09:08:09.080Z,19.7
2019-05-02T09:09:05.476Z,19.7
2019-05-02T09:10:10.678Z,19.69
2019-05-02T09:11:05.769Z,19.67
2019-05-02T09:12:19.990Z,19.69
2019-05-02T09:13:07.518Z,19.74
2019-05-02T09:14:06.944Z,19.7
2019-05-02T09:15:07.068Z,19.71
2019-05-02T09:16:12.041Z,19.73
2019-05-02T09:17:31.808Z,19.67
2019-05-02T09:18:07.443Z,19.58
2019-05-02T09:19:07.661Z,19.52
2019-05-02T09:20:23.614Z,19.36
2019-05-02T09:21:06.881Z,19.3
2019-05-02T09:22:13.055Z,19.02
2019-05-02T09:23:06.297Z,18.92
2019-05-02T09:24:13.457Z,18.96
2019-05-02T09:25:07.078Z,19.07
2019-05-02T09:26:07.401Z,19.09
2019-05-02T09:27:07.320Z,19.09
2019-05-02T09:28:06.743Z,19.08
2019-05-02T09:29:10.155Z,19.15
2019-05-02T09:30:07.344Z,19.18
2019-05-02T09:31:09.384Z,19.27
2019-05-02T09:32:07.020Z,19.33
2019-05-02T09:33:11.655Z,19.58
2019-05-02T09:34:07.342Z,19.74
2019-05-02T09:35:11.661Z,19.79
2019-05-02T09:36:06.969Z,19.7
2019-05-02T09:37:07.544Z,19.59
2019-05-02T09:38:06.147Z,19.58
2019-05-02T09:39:07.228Z,19.51
2019-05-02T09:40:12.354Z,19.64
2019-05-02T09:41:22.165Z,19.74
2019-05-02T09:42:12.047Z,19.84
2019-05-02T09:43:08.854Z,19.77
2019-05-02T09:44:14.382Z,19.84
2019-05-02T09:45:07.931Z,19.69
2019-05-02T09:46:12.666Z,19.66
2019-05-02T09:47:07.231Z,19.59
2019-05-02T09:48:12.526Z,19.51
2019-05-02T09:49:16.607Z,19.47
2019-05-02T09:50:07.610Z,19.47
2019-05-02T09:51:21.499Z,19.51
2019-05-02T09:52:08.181Z,19.67
2019-05-02T09:53:06.964Z,19.79
2019-05-02T09:54:09.531Z,19.91
2019-05-02T09:55:07.132Z,20.22
2019-05-02T09:56:07.023Z,20.36
2019-05-02T09:57:07.420Z,20.65
2019-05-02T09:58:10.300Z,20.78
2019-05-02T09:59:33.047Z,20.77
2019-05-02T10:00:06.985Z,20.81
2019-05-02T10:01:06.584Z,20.85
2019-05-02T10:02:06.563Z,20.92
2019-05-02T10:03:07.279Z,21.17
2019-05-02T10:04:07.203Z,21.36
2019-05-02T10:05:06.569Z,21.46
2019-05-02T10:06:13.790Z,21.51
2019-05-02T10:07:07.158Z,21.39
2019-05-02T10:08:14.177Z,21.4
2019-05-02T10:09:07.408Z,21.29
2019-05-02T10:10:09.795Z,21
2019-05-02T10:11:07.450Z,20.88
2019-05-02T10:12:06.871Z,20.85
2019-05-02T10:13:07.371Z,20.78
2019-05-02T10:14:07.318Z,20.59
2019-05-02T10:15:06.944Z,20.48
2019-05-02T10:16:06.883Z,20.26
2019-05-02T10:17:12.387Z,20.22
2019-05-02T10:18:19.522Z,20.14
2019-05-02T10:19:15.976Z,20.14
2019-05-02T10:20:06.421Z,20.13
2019-05-02T10:21:13.337Z,20.21
2019-05-02T10:22:06.849Z,20.13
2019-05-02T10:23:11.351Z,20.11
2019-05-02T10:24:08.529Z,20.04
2019-05-02T10:25:06.955Z,19.92
2019-05-02T10:26:07.880Z,19.82
2019-05-02T10:27:12.577Z,19.84
2019-05-02T10:28:09.865Z,19.79
2019-05-02T10:29:06.911Z,19.71
2019-05-02T10:30:18.147Z,19.76
2019-05-02T10:31:06.850Z,19.85
2019-05-02T10:32:12.885Z,20.04
2019-05-02T10:33:07.370Z,20.16
2019-05-02T10:34:15.872Z,20.4
2019-05-02T10:35:06.888Z,20.59
2019-05-02T10:36:11.772Z,20.74
2019-05-02T10:37:07.968Z,20.8
2019-05-02T10:38:09.337Z,20.88
2019-05-02T10:39:06.462Z,20.88
2019-05-02T10:40:13.311Z,21.11
2019-05-02T10:41:08.937Z,21.2
2019-05-02T10:42:06.671Z,21.25
2019-05-02T10:43:07.715Z,21.4
2019-05-02T10:44:06.820Z,21.52
2019-05-02T10:45:12.836Z,21.67
2019-05-02T10:46:06.413Z,21.89
2019-05-02T10:47:07.718Z,22.04
2019-05-02T10:48:06.608Z,22.15
2019-05-02T10:49:06.815Z,22.22
2019-05-02T10:50:07.120Z,22.04
2019-05-02T10:51:06.245Z,21.98
2019-05-02T10:52:07.001Z,22.07
2019-05-02T10:53:18.141Z,21.88
2019-05-02T10:54:06.870Z,22.06
2019-05-02T10:55:07.456Z,21.83
2019-05-02T10:56:07.478Z,21.93
2019-05-02T10:57:07.139Z,21.82
2019-05-02T10:58:06.787Z,21.73
2019-05-02T10:59:06.828Z,21.7
2019-05-02T11:00:08.014Z,21.69
2019-05-02T11:01:07.075Z,21.54
2019-05-02T11:02:07.332Z,21.46
2019-05-02T11:03:06.965Z,21.37
2019-05-02T11:04:06.942Z,21.45
2019-05-02T11:05:07.291Z,21.21
2019-05-02T11:06:12.515Z,20.97
2019-05-02T11:07:07.486Z,20.93
2019-05-02T11:08:11.983Z,20.75
2019-05-02T11:09:08.917Z,20.74
2019-05-02T11:10:12.142Z,20.7
2019-05-02T11:11:08.702Z,20.67
2019-05-02T11:12:06.898Z,20.62
2019-05-02T11:13:06.443Z,20.6
2019-05-02T11:14:11.949Z,20.52
2019-05-02T11:15:06.897Z,20.69
2019-05-02T11:16:06.533Z,20.69
2019-05-02T11:17:17.512Z,20.72
2019-05-02T11:18:07.121Z,20.66
2019-05-02T11:19:07.134Z,20.92
2019-05-02T11:20:06.534Z,20.85
2019-05-02T11:21:12.244Z,20.85
2019-05-02T11:22:07.753Z,20.84
2019-05-02T11:23:06.804Z,20.69
2019-05-02T11:24:07.322Z,20.67
2019-05-02T11:25:06.763Z,20.66
2019-05-02T11:26:06.343Z,20.65
2019-05-02T11:27:08.232Z,20.8
2019-05-02T11:28:10.018Z,20.81
2019-05-02T11:29:07.664Z,20.92
2019-05-02T11:30:07.423Z,21.05
2019-05-02T11:31:13.075Z,21
2019-05-02T11:32:07.628Z,20.96
2019-05-02T11:33:07.949Z,20.99
2019-05-02T11:34:06.725Z,21.11
2019-05-02T11:35:07.804Z,21.24
2019-05-02T11:36:07.378Z,21.22
2019-05-02T11:37:06.619Z,21.33
2019-05-02T11:38:07.303Z,21.45
2019-05-02T11:39:36.792Z,21.5
2019-05-02T11:40:12.820Z,21.54
2019-05-02T11:41:07.602Z,21.37
2019-05-02T11:42:06.934Z,21.27
2019-05-02T11:43:11.551Z,21.27
2019-05-02T11:44:07.556Z,21.11
2019-05-02T11:45:07.274Z,21.05
2019-05-02T11:46:12.148Z,21.02
2019-05-02T11:47:06.910Z,20.97
2019-05-02T11:48:16.305Z,21.14
2019-05-02T11:49:07.262Z,21.09
2019-05-02T11:50:07.042Z,21.03
2019-05-02T11:51:12.597Z,21.09
2019-05-02T11:52:08.953Z,21.17
2019-05-02T11:53:28.400Z,21.37
2019-05-02T11:54:12.877Z,21.46
2019-05-02T11:55:06.703Z,21.5
2019-05-02T11:56:13.988Z,21.46
2019-05-02T11:57:06.827Z,21.42
2019-05-02T11:58:14.917Z,21.5
2019-05-02T11:59:07.491Z,21.48
2019-05-02T12:00:12.499Z,21.62
2019-05-02T12:01:10.002Z,21.57
2019-05-02T12:02:17.071Z,21.42
2019-05-02T12:03:07.017Z,21.36
2019-05-02T12:04:12.867Z,21.4
2019-05-02T12:05:06.579Z,21.46
2019-05-02T12:06:12.103Z,21.5
2019-05-02T12:07:09.551Z,21.43
2019-05-02T12:08:14.635Z,21.5
2019-05-02T12:09:06.645Z,21.48
2019-05-02T12:10:09.354Z,21.43
2019-05-02T12:11:13.817Z,21.52
2019-05-02T12:12:07.399Z,21.57
2019-05-02T12:13:11.757Z,21.58
2019-05-02T12:14:06.711Z,21.69
2019-05-02T12:15:07.122Z,21.82
2019-05-02T12:16:08.592Z,22.02
2019-05-02T12:17:07.521Z,22.08
2019-05-02T12:18:07.076Z,22.26
2019-05-02T12:19:17.425Z,22.2
2019-05-02T12:20:06.668Z,22.2
2019-05-02T12:21:07.474Z,22.13
2019-05-02T12:22:12.666Z,22.08
2019-05-02T12:23:08.920Z,22
2019-05-02T12:24:07.272Z,22.04
2019-05-02T12:25:07.804Z,21.98
2019-05-02T12:26:07.397Z,22.07
2019-05-02T12:27:07.357Z,21.98
2019-05-02T12:28:06.618Z,21.95
2019-05-02T12:29:07.172Z,22.02
2019-05-02T12:30:08.136Z,21.96
2019-05-02T12:31:13.040Z,21.77
2019-05-02T12:32:07.247Z,21.83
2019-05-02T12:33:07.343Z,21.77
2019-05-02T12:34:07.275Z,21.69
2019-05-02T12:35:06.776Z,21.83
2019-05-02T12:36:06.940Z,21.93
2019-05-02T12:37:06.342Z,22.11
2019-05-02T12:38:07.092Z,22.04
2019-05-02T12:39:07.037Z,22.06
2019-05-02T12:40:07.284Z,22.07
2019-05-02T12:41:19.438Z,22.11
2019-05-02T12:42:08.919Z,22.18
2019-05-02T12:43:07.039Z,22.13
2019-05-02T12:44:06.924Z,22.3
2019-05-02T12:45:07.431Z,22.26
2019-05-02T12:46:06.936Z,22.33
2019-05-02T12:47:06.952Z,22.53
2019-05-02T12:48:06.979Z,22.47
2019-05-02T12:49:07.729Z,22.44
2019-05-02T12:50:07.742Z,22.26
2019-05-02T12:51:06.837Z,22.26
2019-05-02T12:52:06.647Z,22.2
2019-05-02T12:53:07.779Z,22.17
2019-05-02T12:54:07.237Z,22.13
2019-05-02T12:55:07.124Z,21.98
2019-05-02T12:56:07.139Z,21.85
2019-05-02T12:57:06.935Z,21.88
2019-05-02T12:58:07.937Z,21.95
2019-05-02T12:59:07.328Z,21.83
2019-05-02T13:00:06.969Z,21.93
2019-05-02T13:01:09.558Z,21.92
2019-05-02T13:02:07.120Z,22.04
2019-05-02T13:03:06.828Z,21.95